Time;durP1;ratioP1;P1;durP2;ratioP2;P2;SDS_P1;SDS_P2;PMS_P1;PMS_P2;Temp;Humidity;BMP_temperature;BMP_pressure;BME280_temperature;BME280_humidity;BME280_pressure;Samples;Min_cycle;Max_cycle;Signal;HPM_P1;HPM_P2
2022/08/02 00:00:11;;;;;;;5.15;3.90;;;;;;;16.22;74.19;99910.00;5011348;28;20050;-69
2022/08/02 00:02:37;;;;;;;8.10;3.60;;;;;;;16.19;73.91;99904.91;5011415;28;20494;-69
2022/08/02 00:05:04;;;;;;;7.70;3.75;;;;;;;16.20;74.10;99899.50;5010637;28;20057;-70
2022/08/02 00:07:31;;;;;;;8.30;4.00;;;;;;;16.20;74.05;99898.66;5019498;28;20064;-69
2022/08/02 00:09:59;;;;;;;6.57;3.40;;;;;;;16.19;74.39;99887.16;5028081;28;20046;-70
2022/08/02 00:12:25;;;;;;;8.80;5.28;;;;;;;16.19;74.28;99891.63;5030892;28;20051;-70
2022/08/02 00:14:52;;;;;;;10.30;4.82;;;;;;;16.16;74.52;99890.03;5030335;28;20408;-70
2022/08/02 00:17:19;;;;;;;8.82;3.95;;;;;;;16.17;74.11;99893.53;5031454;28;20053;-70
2022/08/02 00:19:46;;;;;;;8.30;4.32;;;;;;;16.19;74.42;99894.28;5031419;28;20053;-71
2022/08/02 00:22:12;;;;;;;7.88;3.92;;;;;;;16.18;74.28;99889.94;5031108;28;20049;-70
2022/08/02 00:24:39;;;;;;;9.90;4.53;;;;;;;16.18;74.21;99889.94;5030755;28;20527;-70
2022/08/02 00:27:07;;;;;;;12.00;6.75;;;;;;;16.19;74.23;99886.31;5030856;28;20052;-69
2022/08/02 00:29:34;;;;;;;11.38;5.13;;;;;;;16.22;74.25;99888.72;5031057;28;20732;-69
2022/08/02 00:32:01;;;;;;;6.88;3.85;;;;;;;16.23;73.80;99885.97;5031085;28;20073;-69
2022/08/02 00:34:28;;;;;;;8.07;4.63;;;;;;;16.21;73.90;99882.56;5030129;28;20136;-69
2022/08/02 00:36:54;;;;;;;10.35;4.55;;;;;;;16.20;73.92;99893.34;5030423;28;20144;-70
2022/08/02 00:39:21;;;;;;;5.40;3.70;;;;;;;16.18;74.19;99890.78;5030476;28;20049;-71
2022/08/02 00:41:51;;;;;;;3.90;3.40;;;;;;;16.20;73.96;99888.03;5030543;28;20050;-71
2022/08/02 00:44:20;;;;;;;5.45;3.60;;;;;;;16.18;73.92;99880.13;5030224;28;20136;-69
2022/08/02 00:46:47;;;;;;;5.93;3.25;;;;;;;16.18;74.31;99884.63;5030740;28;20056;-69
2022/08/02 00:49:14;;;;;;;5.82;4.25;;;;;;;16.18;74.00;99873.97;5030059;28;20052;-69
2022/08/02 00:51:41;;;;;;;5.20;3.47;;;;;;;16.16;74.00;99875.88;5030251;28;20493;-70
2022/08/02 00:54:08;;;;;;;5.32;3.05;;;;;;;16.15;74.09;99876.84;5023213;28;20073;-69
2022/08/02 00:56:35;;;;;;;4.30;3.13;;;;;;;16.13;74.32;99866.31;5010916;28;20073;-69
2022/08/02 00:59:04;;;;;;;6.05;3.33;;;;;;;16.15;74.26;99866.22;5010447;28;20498;-69
2022/08/02 01:01:38;;;;;;;9.32;4.15;;;;;;;16.15;73.95;99859.09;5010756;28;20104;-69
2022/08/02 01:04:06;;;;;;;6.68;4.05;;;;;;;16.12;73.92;99856.66;5010061;28;20056;-69
2022/08/02 01:06:33;;;;;;;5.03;3.80;;;;;;;16.08;74.25;99850.69;5010339;28;20141;-69
2022/08/02 01:09:00;;;;;;;4.32;3.63;;;;;;;16.09;74.46;99851.53;5010606;28;20045;-69
2022/08/02 01:11:27;;;;;;;6.00;4.30;;;;;;;16.10;74.16;99861.22;5010349;28;20046;-69
2022/08/02 01:13:56;;;;;;;5.25;3.63;;;;;;;16.15;74.25;99859.09;5010359;28;20077;-70
2022/08/02 01:16:27;;;;;;;6.07;4.50;;;;;;;16.16;73.86;99867.91;5010667;28;20118;-70
2022/08/02 01:19:01;;;;;;;4.40;3.63;;;;;;;16.16;74.04;99866.09;5010906;28;20053;-70
2022/08/02 01:21:51;;;;;;;6.80;4.07;;;;;;;16.25;73.52;99867.25;5010222;28;20046;-69
2022/08/02 01:24:34;;;;;;;5.65;4.03;;;;;;;16.25;73.15;99867.25;5009715;28;20054;-71
2022/08/02 01:27:11;;;;;;;6.82;3.95;;;;;;;16.26;72.91;99863.63;5012517;28;20105;-70
2022/08/02 01:29:43;;;;;;;8.57;3.78;;;;;;;16.27;73.05;99862.69;5018155;28;20050;-71
2022/08/02 01:32:14;;;;;;;7.30;4.40;;;;;;;16.25;72.87;99869.91;5017436;28;20056;-71
2022/08/02 01:34:44;;;;;;;4.47;3.58;;;;;;;16.26;73.14;99864.47;5022014;28;20049;-71
2022/08/02 01:37:18;;;;;;;6.68;3.72;;;;;;;16.29;72.98;99863.41;5021565;28;20045;-70
2022/08/02 01:39:50;;;;;;;8.27;4.00;;;;;;;16.25;73.14;99862.78;5022589;28;20061;-70
2022/08/02 01:42:19;;;;;;;6.22;4.45;;;;;;;16.20;73.36;99862.25;5021793;28;20101;-70
2022/08/02 01:44:49;;;;;;;6.05;3.63;;;;;;;16.22;73.56;99855.03;5026115;28;20038;-72
2022/08/02 01:47:19;;;;;;;4.88;3.38;;;;;;;16.30;73.13;99857.13;5035052;28;20124;-71
2022/08/02 01:49:50;;;;;;;6.70;4.18;;;;;;;16.31;72.73;99856.16;5023379;28;20049;-69
2022/08/02 01:52:24;;;;;;;6.20;3.10;;;;;;;16.33;72.67;99848.94;5009643;28;20054;-69
2022/08/02 01:54:57;;;;;;;4.30;3.25;;;;;;;16.32;73.01;99849.91;5009164;28;20049;-69
2022/08/02 01:57:26;;;;;;;16.88;3.50;;;;;;;16.37;72.75;99839.78;5009810;28;20077;-69
2022/08/02 01:59:59;;;;;;;5.35;4.85;;;;;;;16.41;72.48;99837.72;5009562;28;20054;-70
2022/08/02 02:02:26;;;;;;;7.22;4.35;;;;;;;16.39;72.48;99829.00;5011920;28;20149;-70
2022/08/02 02:04:55;;;;;;;7.38;4.07;;;;;;;16.38;72.66;99828.16;5009908;28;20050;-70
2022/08/02 02:07:22;;;;;;;5.70;4.20;;;;;;;16.39;72.15;99827.22;5016905;28;20046;-70
2022/08/02 02:09:50;;;;;;;5.15;3.80;;;;;;;16.43;72.40;99827.81;5029443;28;20045;-69
2022/08/02 02:12:18;;;;;;;5.85;4.57;;;;;;;16.43;72.27;99834.00;5029269;28;20049;-70
2022/08/02 02:14:46;;;;;;;6.05;3.80;;;;;;;16.41;72.37;99825.25;5028604;28;20136;-70
2022/08/02 02:17:16;;;;;;;7.25;4.03;;;;;;;16.40;72.24;99818.25;5028961;28;20050;-70
2022/08/02 02:19:45;;;;;;;6.07;3.50;;;;;;;16.38;72.59;99814.84;5029618;28;20073;-71
2022/08/02 02:22:12;;;;;;;5.43;3.88;;;;;;;16.38;72.73;99806.03;5029168;28;20497;-70
2022/08/02 02:24:38;;;;;;;7.43;4.28;;;;;;;16.41;72.44;99811.97;5028560;28;20050;-70
2022/08/02 02:27:09;;;;;;;11.25;5.15;;;;;;;16.45;71.92;99818.75;5029485;28;20049;-70
2022/08/02 02:29:42;;;;;;;8.88;4.07;;;;;;;16.50;71.78;99808.63;5028925;28;20059;-70
2022/08/02 02:32:09;;;;;;;4.15;3.10;;;;;;;16.49;71.93;99804.28;5028851;28;20053;-69
2022/08/02 02:34:40;;;;;;;5.82;3.63;;;;;;;16.53;71.86;99805.72;5028812;28;20049;-70
2022/08/02 02:37:14;;;;;;;7.35;4.00;;;;;;;16.50;71.67;99810.44;5029218;28;20489;-70
2022/08/02 02:39:42;;;;;;;12.40;4.80;;;;;;;16.46;72.09;99803.63;5029201;28;20398;-69
2022/08/02 02:42:13;;;;;;;8.60;4.32;;;;;;;16.43;72.41;99802.06;5028802;28;20516;-70
2022/08/02 02:44:40;;;;;;;5.13;3.70;;;;;;;16.41;72.53;99806.63;5028168;28;20115;-70
2022/08/02 02:47:08;;;;;;;6.25;3.35;;;;;;;16.41;72.41;99797.81;5014735;28;20061;-69
2022/08/02 02:49:38;;;;;;;5.85;3.75;;;;;;;16.43;72.40;99804.72;5009176;28;20060;-70
2022/08/02 02:52:06;;;;;;;6.68;3.50;;;;;;;16.45;71.99;99792.16;5009381;28;20046;-69
2022/08/02 02:54:34;;;;;;;3.85;3.38;;;;;;;16.48;72.15;99799.06;5008364;28;20057;-70
2022/08/02 02:57:01;;;;;;;6.13;3.30;;;;;;;16.47;72.09;99800.03;5014667;28;20042;-71
2022/08/02 02:59:28;;;;;;;4.75;3.80;;;;;;;16.46;72.06;99795.66;5028405;28;20088;-71
2022/08/02 03:01:55;;;;;;;9.05;3.67;;;;;;;16.41;71.92;99796.00;5031964;28;20056;-70
2022/08/02 03:04:23;;;;;;;7.28;4.13;;;;;;;16.40;72.18;99796.97;5031697;28;20056;-70
2022/08/02 03:06:51;;;;;;;6.15;3.70;;;;;;;16.39;72.14;99791.75;5029052;28;20052;-70
2022/08/02 03:09:18;;;;;;;5.25;3.92;;;;;;;16.40;72.47;99793.47;5012434;28;20054;-70
2022/08/02 03:11:45;;;;;;;7.43;3.70;;;;;;;16.36;72.30;99784.84;5012494;28;20049;-70
2022/08/02 03:14:13;;;;;;;4.85;4.05;;;;;;;16.35;72.35;99780.50;5011768;28;20417;-70
2022/08/02 03:16:44;;;;;;;5.45;3.58;;;;;;;16.35;72.66;99769.00;5012371;28;20049;-70
2022/08/02 03:19:11;;;;;;;4.60;3.65;;;;;;;16.36;72.63;99779.53;5012328;28;20054;-71
2022/08/02 03:21:38;;;;;;;4.72;3.33;;;;;;;16.29;72.62;99773.81;5012214;28;20053;-70
2022/08/02 03:24:07;;;;;;;6.22;3.95;;;;;;;16.28;73.11;99771.25;5011594;28;20041;-69
2022/08/02 03:26:34;;;;;;;6.78;3.42;;;;;;;16.29;72.75;99775.59;5011951;28;20677;-69
2022/08/02 03:29:00;;;;;;;6.93;4.80;;;;;;;16.33;72.51;99771.78;5012530;28;20072;-70
2022/08/02 03:31:27;;;;;;;6.15;3.95;;;;;;;16.34;72.78;99773.44;5014649;28;20053;-70
2022/08/02 03:33:54;;;;;;;4.40;3.22;;;;;;;16.37;72.46;99781.22;5011849;28;20049;-70
2022/08/02 03:36:23;;;;;;;4.97;3.20;;;;;;;16.39;72.53;99771.34;5011898;28;20418;-70
2022/08/02 03:38:51;;;;;;;6.65;3.95;;;;;;;16.37;72.50;99767.94;5029781;28;20144;-70
2022/08/02 03:41:21;;;;;;;7.57;3.97;;;;;;;16.37;72.70;99767.09;5031536;28;20049;-69
2022/08/02 03:43:49;;;;;;;5.30;4.10;;;;;;;16.37;72.96;99777.72;5013980;28;20052;-71
2022/08/02 03:46:19;;;;;;;6.45;3.97;;;;;;;16.36;72.97;99779.53;5011279;28;20504;-71
2022/08/02 03:48:47;;;;;;;6.60;3.88;;;;;;;16.39;72.94;99771.34;5011652;28;20501;-70
2022/08/02 03:51:15;;;;;;;5.82;3.67;;;;;;;16.42;72.98;99773.75;5011474;28;20053;-70
2022/08/02 03:53:42;;;;;;;7.70;4.57;;;;;;;16.41;73.22;99777.38;5014358;28;20229;-71
2022/08/02 03:56:09;;;;;;;5.50;4.15;;;;;;;16.40;73.46;99775.69;5011028;28;20050;-69
2022/08/02 03:58:37;;;;;;;5.63;3.22;;;;;;;16.44;73.04;99776.28;5011264;28;20149;-45
2022/08/02 04:01:04;;;;;;;5.82;4.63;;;;;;;16.58;72.67;99769.97;5011511;28;20532;-48
2022/08/02 04:03:31;;;;;;;5.25;3.17;;;;;;;16.63;72.60;99778.44;5011253;28;20715;-47
2022/08/02 04:05:57;;;;;;;6.80;4.07;;;;;;;16.70;72.52;99780.53;5010652;28;20049;-47
2022/08/02 04:08:24;;;;;;;4.65;3.22;;;;;;;16.71;72.05;99776.94;5026929;28;20515;-46
2022/08/02 04:13:36;;;;;;;9.02;4.22;;;;;;;16.88;71.73;99777.47;5030293;28;20119;-46
2022/08/02 04:16:12;;;;;;;6.00;4.00;;;;;;;16.95;71.40;99778.72;5030464;28;20402;-44
2022/08/02 04:18:49;;;;;;;4.65;3.45;;;;;;;16.98;71.54;99783.81;5031170;28;20049;-50
2022/08/02 04:21:19;;;;;;;14.13;4.78;;;;;;;16.97;71.24;99791.94;5031283;28;20056;-48
2022/08/02 04:23:48;;;;;;;6.63;4.43;;;;;;;16.89;71.76;99793.34;5030877;28;20048;-45
2022/08/02 04:26:15;;;;;;;13.60;3.88;;;;;;;16.87;71.71;99795.28;5030247;28;20049;-46
2022/08/02 04:28:43;;;;;;;7.22;4.60;;;;;;;16.79;72.13;99788.84;5031014;28;20056;-47
2022/08/02 04:31:11;;;;;;;5.13;3.88;;;;;;;16.81;72.45;99803.75;5030882;28;20053;-46
2022/08/02 04:33:38;;;;;;;6.32;3.72;;;;;;;16.82;72.36;99800.09;5031094;28;20375;-43
2022/08/02 04:36:06;;;;;;;5.93;4.35;;;;;;;16.82;71.99;99800.09;5030515;28;20046;-46
2022/08/02 04:38:33;;;;;;;10.10;3.88;;;;;;;16.76;72.81;99795.22;5025735;28;20413;-43
2022/08/02 04:41:00;;;;;;;6.40;3.85;;;;;;;16.89;72.02;99797.84;5011365;28;20057;-47
2022/08/02 04:43:26;;;;;;;8.55;4.15;;;;;;;17.02;71.43;99795.94;5011553;28;20583;-45
2022/08/02 04:45:55;;;;;;;5.68;3.92;;;;;;;17.10;71.49;99803.34;5010356;28;20506;-48
2022/08/02 04:48:24;;;;;;;8.52;4.30;;;;;;;17.12;71.59;99798.75;5011322;28;20054;-46
2022/08/02 04:50:51;;;;;;;6.63;4.43;;;;;;;17.06;71.24;99804.56;5011171;28;20117;-45
2022/08/02 04:53:17;;;;;;;8.30;4.32;;;;;;;17.05;72.09;99808.16;5017068;28;20089;-45
2022/08/02 04:55:44;;;;;;;4.70;3.50;;;;;;;17.03;72.13;99810.09;5029938;28;20460;-46
2022/08/02 04:58:11;;;;;;;6.90;3.65;;;;;;;17.15;72.15;99804.72;5030590;28;20076;-50
2022/08/02 05:00:37;;;;;;;5.32;3.75;;;;;;;17.28;71.73;99806.44;5030079;28;20053;-48
2022/08/02 05:03:04;;;;;;;7.25;3.65;;;;;;;17.32;71.88;99798.06;5030304;28;20049;-46
2022/08/02 05:05:32;;;;;;;9.98;3.85;;;;;;;17.31;71.97;99788.38;5029560;28;20049;-48
2022/08/02 05:07:58;;;;;;;28.73;9.45;;;;;;;17.44;72.06;99784.75;5017552;28;20053;-48
2022/08/02 05:10:25;;;;;;;17.42;7.38;;;;;;;17.50;71.54;99790.47;5010079;28;20050;-46
2022/08/02 05:12:52;;;;;;;11.18;5.40;;;;;;;17.60;71.17;99787.94;5010202;28;20340;-44
2022/08/02 05:15:18;;;;;;;15.93;5.10;;;;;;;17.71;71.24;99787.09;5009802;28;20041;-46
2022/08/02 05:17:46;;;;;;;8.65;4.28;;;;;;;17.77;71.07;99782.13;5010514;28;20056;-46
2022/08/02 05:20:14;;;;;;;10.18;4.32;;;;;;;17.88;70.09;99781.28;5010686;28;20050;-42
2022/08/02 05:22:42;;;;;;;9.50;4.60;;;;;;;18.06;70.31;99786.13;5010179;28;20077;-45
2022/08/02 05:25:10;;;;;;;9.65;4.53;;;;;;;18.10;70.58;99779.56;5009301;28;20046;-44
2022/08/02 05:27:36;;;;;;;7.25;4.82;;;;;;;18.16;70.49;99785.28;5009784;28;20061;-48
2022/08/02 05:30:04;;;;;;;8.65;4.40;;;;;;;18.23;70.46;99786.44;5017231;28;20057;-49
2022/08/02 05:32:31;;;;;;;6.80;4.15;;;;;;;18.39;70.73;99788.72;5029577;28;20049;-47
2022/08/02 05:34:57;;;;;;;8.02;3.70;;;;;;;18.54;69.73;99781.28;5022196;28;20041;-48
2022/08/02 05:37:24;;;;;;;7.03;3.97;;;;;;;18.71;69.25;99787.06;5012010;28;20064;-43
2022/08/02 05:39:52;;;;;;;4.63;3.47;;;;;;;18.87;68.62;99788.31;5010456;28;20409;-44
2022/08/02 05:42:18;;;;;;;4.45;3.28;;;;;;;18.97;68.33;99783.06;5009868;28;20050;-43
2022/08/02 05:44:45;;;;;;;5.97;3.33;;;;;;;19.09;67.69;99778.50;5009697;28;20046;-49
2022/08/02 05:47:11;;;;;;;5.65;3.78;;;;;;;19.25;67.49;99784.25;5012610;28;20049;-44
2022/08/02 05:49:38;;;;;;;4.68;3.47;;;;;;;19.35;67.18;99778.97;5043445;28;20128;-46
2022/08/02 05:52:10;;;;;;;6.63;3.35;;;;;;;19.44;66.86;99780.84;5044447;28;20452;-52
2022/08/02 05:54:47;;;;;;;7.68;4.38;;;;;;;19.58;66.39;99781.47;5048894;28;20137;-49
2022/08/02 05:57:27;;;;;;;4.68;3.40;;;;;;;19.72;66.13;99782.00;5044980;28;20057;-47
2022/08/02 06:00:05;;;;;;;6.43;3.58;;;;;;;19.82;65.93;99783.88;5046531;28;20589;-46
2022/08/02 06:02:46;;;;;;;8.32;4.35;;;;;;;19.93;65.72;99786.44;5029061;28;20215;-46
2022/08/02 06:05:15;;;;;;;8.07;4.43;;;;;;;20.03;65.46;99791.81;5028858;28;20474;-46
2022/08/02 06:07:43;;;;;;;9.10;3.88;;;;;;;20.16;65.10;99795.13;5018878;28;20069;-48
2022/08/02 06:10:12;;;;;;;6.38;4.05;;;;;;;20.28;64.75;99794.00;5010272;28;20054;-44
2022/08/02 06:12:45;;;;;;;5.97;3.13;;;;;;;20.38;64.30;99781.50;5009699;28;20057;-46
2022/08/02 06:15:14;;;;;;;4.35;2.97;;;;;;;20.50;64.26;99778.66;5009083;28;20050;-47
2022/08/02 06:17:41;;;;;;;6.85;4.57;;;;;;;20.63;63.60;99771.25;5009600;28;20092;-51
2022/08/02 06:20:10;;;;;;;7.30;4.43;;;;;;;20.74;63.32;99770.25;5009480;28;20046;-48
2022/08/02 06:22:41;;;;;;;4.00;3.10;;;;;;;20.87;63.14;99767.28;5009106;28;20421;-50
2022/08/02 06:25:08;;;;;;;6.03;3.13;;;;;;;21.00;62.40;99765.19;5008621;28;20081;-44
2022/08/02 06:27:35;;;;;;;7.13;3.55;;;;;;;21.05;62.32;99767.44;5027065;28;20485;-46
2022/08/02 06:30:05;;;;;;;3.45;2.63;;;;;;;21.19;62.17;99770.50;5009673;28;20046;-43
2022/08/02 06:32:33;;;;;;;8.07;4.30;;;;;;;21.38;63.15;99763.41;5009297;28;20651;-44
2022/08/02 06:34:59;;;;;;;7.60;3.70;;;;;;;21.49;62.12;99773.16;5009024;28;20042;-48
2022/08/02 06:37:30;;;;;;;7.55;3.50;;;;;;;21.55;61.25;99762.66;5013277;28;20415;-46
2022/08/02 06:40:04;;;;;;;3.97;2.95;;;;;;;21.64;61.46;99763.63;5012907;28;20054;-50
2022/08/02 06:42:37;;;;;;;4.68;3.42;;;;;;;21.76;61.53;99772.34;5013160;28;20050;-43
2022/08/02 06:45:06;;;;;;;3.67;3.28;;;;;;;21.97;60.32;99772.94;5031036;28;20805;-71
2022/08/02 06:47:33;;;;;;;3.72;3.10;;;;;;;21.99;59.25;99768.25;5052537;28;20048;-71
2022/08/02 06:50:00;;;;;;;7.28;3.70;;;;;;;21.98;59.37;99771.09;5050572;28;20136;-70
2022/08/02 06:52:29;;;;;;;4.82;3.20;;;;;;;21.96;59.30;99768.56;5030093;28;20049;-70
2022/08/02 06:54:57;;;;;;;9.95;4.25;;;;;;;22.05;59.54;99773.06;5031865;28;20055;-70
2022/08/02 06:57:23;;;;;;;3.70;3.03;;;;;;;22.15;59.31;99775.69;5032240;28;20409;-70
2022/08/02 06:59:50;;;;;;;5.70;3.55;;;;;;;22.22;58.83;99775.94;5032061;28;20049;-71
2022/08/02 07:02:18;;;;;;;8.25;3.88;;;;;;;22.28;58.73;99781.56;5032276;28;20049;-70
2022/08/02 07:04:44;;;;;;;5.03;3.83;;;;;;;22.38;58.56;99778.81;5031296;28;20424;-70
2022/08/02 07:07:11;;;;;;;8.75;4.47;;;;;;;22.50;58.25;99774.06;5026149;28;20136;-69
2022/08/02 07:09:37;;;;;;;7.78;3.30;;;;;;;22.58;58.01;99770.63;5012484;28;20046;-70
2022/08/02 07:12:05;;;;;;;7.57;3.15;;;;;;;22.68;57.62;99771.38;5012404;28;20167;-70
2022/08/02 07:14:32;;;;;;;7.85;3.00;;;;;;;22.82;57.66;99783.44;5011831;28;20585;-71
2022/08/02 07:16:58;;;;;;;4.43;2.83;;;;;;;22.96;57.03;99772.13;5012266;28;20084;-71
2022/08/02 07:19:26;;;;;;;6.80;3.03;;;;;;;23.13;55.99;99776.66;5012187;28;20146;-71
2022/08/02 07:21:53;;;;;;;5.82;3.35;;;;;;;23.26;56.14;99776.25;5014148;28;20072;-71
2022/08/02 07:24:20;;;;;;;4.72;3.40;;;;;;;23.48;55.14;99772.19;5031381;28;20056;-71
2022/08/02 07:26:46;;;;;;;5.85;3.28;;;;;;;23.85;53.63;99770.22;5030566;28;20091;-72
2022/08/02 07:29:13;;;;;;;3.75;2.63;;;;;;;24.20;52.41;99783.50;5011994;28;20054;-70
2022/08/02 07:31:39;;;;;;;3.78;2.40;;;;;;;24.30;52.20;99779.81;5012256;28;20549;-69
2022/08/02 07:34:06;;;;;;;8.50;2.78;;;;;;;24.29;52.79;99775.41;5011297;28;20509;-72
2022/08/02 07:36:34;;;;;;;3.70;3.10;;;;;;;24.48;51.88;99775.16;5012391;28;20052;-72
2022/08/02 07:39:01;;;;;;;5.25;2.83;;;;;;;24.87;50.76;99773.69;5012082;28;20052;-71
2022/08/02 07:41:27;;;;;;;3.00;2.58;;;;;;;25.38;49.50;99767.13;5025361;28;20083;-71
2022/08/02 07:43:54;;;;;;;4.15;3.25;;;;;;;25.48;49.58;99765.06;5037842;28;20089;-70
2022/08/02 07:46:21;;;;;;;4.28;2.47;;;;;;;25.55;49.39;99769.75;5039175;28;20041;-70
2022/08/02 07:48:48;;;;;;;3.97;2.53;;;;;;;25.70;48.54;99774.28;5028566;28;20052;-69
2022/08/02 07:51:14;;;;;;;3.33;2.53;;;;;;;25.73;48.44;99772.25;5031370;28;20053;-70
2022/08/02 07:53:42;;;;;;;3.83;2.80;;;;;;;25.81;47.39;99772.22;5026909;28;20091;-70
2022/08/02 07:56:09;;;;;;;7.43;3.13;;;;;;;25.90;47.73;99774.75;5010898;28;20046;-70
2022/08/02 07:58:36;;;;;;;5.30;2.78;;;;;;;25.97;47.18;99763.25;5011126;28;20712;-70
2022/08/02 08:01:02;;;;;;;3.67;2.47;;;;;;;26.04;47.41;99765.06;5011351;28;20425;-71
2022/08/02 08:03:29;;;;;;;3.97;2.67;;;;;;;26.31;46.44;99771.00;5011740;28;20397;-70
2022/08/02 08:05:55;;;;;;;3.30;2.50;;;;;;;26.75;45.93;99773.09;5010784;28;20046;-70
2022/08/02 08:08:22;;;;;;;5.15;2.38;;;;;;;27.29;44.08;99775.72;5026854;28;20049;-70
2022/08/02 08:10:50;;;;;;;5.85;2.72;;;;;;;27.21;43.77;99773.09;5031076;28;20049;-70
2022/08/02 08:13:16;;;;;;;7.35;3.00;;;;;;;27.47;43.25;99771.81;5030780;28;20128;-70
2022/08/02 08:15:43;;;;;;;3.63;3.20;;;;;;;27.53;42.83;99771.06;5030118;28;20042;-69
2022/08/02 08:18:10;;;;;;;8.98;4.25;;;;;;;27.62;42.87;99776.22;5030778;28;20512;-71
2022/08/02 08:20:37;;;;;;;4.25;2.85;;;;;;;27.49;42.90;99769.75;5030432;28;20420;-69
2022/08/02 08:23:04;;;;;;;3.22;2.53;;;;;;;27.38;43.75;99771.06;5029090;28;20057;-69
2022/08/02 08:25:30;;;;;;;5.20;2.22;;;;;;;27.26;43.67;99775.25;5010276;28;20125;-69
2022/08/02 08:27:58;;;;;;;7.05;2.88;;;;;;;27.14;44.11;99770.25;5010864;28;20142;-70
2022/08/02 08:30:25;;;;;;;5.47;2.63;;;;;;;27.10;44.05;99762.66;5010878;28;20695;-70
2022/08/02 08:32:52;;;;;;;3.42;2.40;;;;;;;27.08;44.50;99759.31;5011119;28;20138;-70
2022/08/02 08:35:18;;;;;;;4.68;2.45;;;;;;;27.10;44.31;99766.22;5010556;28;20042;-70
2022/08/02 08:37:45;;;;;;;4.90;2.60;;;;;;;27.03;44.30;99765.28;5011170;28;20060;-70
2022/08/02 08:40:13;;;;;;;5.65;2.35;;;;;;;26.85;44.13;99765.59;5010947;28;20049;-70
2022/08/02 08:42:40;;;;;;;5.70;3.33;;;;;;;26.85;44.16;99772.84;5010362;28;20054;-71
2022/08/02 08:45:09;;;;;;;6.18;3.63;;;;;;;26.74;44.50;99769.56;5009757;28;20076;-70
2022/08/02 08:47:38;;;;;;;5.82;2.50;;;;;;;26.73;44.66;99767.91;5010521;28;20060;-70
2022/08/02 08:50:07;;;;;;;5.25;2.58;;;;;;;26.77;44.32;99760.25;5010964;28;20049;-71
2022/08/02 08:52:40;;;;;;;7.20;4.32;;;;;;;26.83;44.60;99761.38;5018289;28;20167;-69
2022/08/02 08:55:10;;;;;;;5.03;2.70;;;;;;;26.94;44.05;99756.38;5029839;28;20051;-70
2022/08/02 08:57:40;;;;;;;4.80;2.70;;;;;;;27.08;43.53;99757.44;5030237;28;20060;-71
2022/08/02 09:00:09;;;;;;;5.07;2.63;;;;;;;27.40;43.31;99769.84;5029961;28;20054;-70
2022/08/02 09:02:36;;;;;;;6.18;2.75;;;;;;;27.76;42.87;99752.00;5030372;28;20470;-70
2022/08/02 09:05:03;;;;;;;2.70;2.08;;;;;;;27.47;43.47;99752.84;5029487;28;20071;-70
2022/08/02 09:07:30;;;;;;;2.63;2.10;;;;;;;27.06;44.04;99759.50;5021525;28;20056;-70
2022/08/02 09:09:56;;;;;;;4.10;2.10;;;;;;;26.70;44.70;99767.41;5010300;28;20056;-70
2022/08/02 09:12:23;;;;;;;3.67;2.60;;;;;;;26.80;44.40;99772.56;5010406;28;20056;-70
2022/08/02 09:14:51;;;;;;;5.35;2.92;;;;;;;27.10;43.66;99771.66;5014962;28;20065;-69
2022/08/02 09:17:19;;;;;;;3.00;2.22;;;;;;;26.77;44.26;99771.06;5029629;28;20124;-69
2022/08/02 09:19:46;;;;;;;5.93;2.20;;;;;;;26.76;44.20;99772.09;5024587;28;20137;-68
2022/08/02 09:22:14;;;;;;;7.13;3.08;;;;;;;27.56;42.60;99760.69;5010141;28;20103;-69
2022/08/02 09:24:45;;;;;;;4.70;2.53;;;;;;;28.51;40.43;99766.34;5009361;28;20075;-70
2022/08/02 09:27:14;;;;;;;2.95;2.08;;;;;;;29.24;38.42;99762.44;5010080;28;20589;-70
2022/08/02 09:29:45;;;;;;;3.92;2.92;;;;;;;29.82;37.37;99758.63;5009642;28;20050;-69
2022/08/02 09:32:11;;;;;;;3.22;2.20;;;;;;;30.20;36.72;99755.44;5012720;28;20049;-70
2022/08/02 09:34:47;;;;;;;6.85;2.38;;;;;;;30.86;35.48;99757.53;5039597;28;20456;-71
2022/08/02 09:37:26;;;;;;;3.08;2.35;;;;;;;31.44;34.83;99755.00;5049619;28;20048;-69
2022/08/02 09:39:53;;;;;;;13.27;3.05;;;;;;;31.70;34.49;99751.38;5049452;28;20053;-70
2022/08/02 09:42:20;;;;;;;9.48;3.20;;;;;;;31.93;33.81;99758.25;5049278;28;20501;-69
2022/08/02 09:44:54;;;;;;;7.53;3.03;;;;;;;32.33;32.69;99749.91;5048818;28;20607;-69
2022/08/02 09:47:21;;;;;;;4.43;2.40;;;;;;;32.38;32.42;99752.81;5049229;28;20413;-69
2022/08/02 09:49:49;;;;;;;3.53;2.67;;;;;;;32.77;31.58;99751.72;5049544;28;20412;-69
2022/08/02 09:52:22;;;;;;;3.63;2.10;;;;;;;32.44;32.05;99751.91;5026989;28;20053;-70
2022/08/02 09:54:49;;;;;;;4.13;2.42;;;;;;;32.08;32.63;99754.19;5029088;28;20141;-70
2022/08/02 09:57:25;;;;;;;3.55;2.22;;;;;;;31.89;32.83;99755.09;5028937;28;20049;-69
2022/08/02 09:59:54;;;;;;;5.53;2.13;;;;;;;32.36;32.81;99749.44;5028713;28;20052;-70
2022/08/02 10:02:21;;;;;;;3.85;2.15;;;;;;;32.44;31.82;99747.31;5029395;28;20049;-71
2022/08/02 10:04:49;;;;;;;2.42;2.20;;;;;;;32.33;32.06;99748.00;5029190;28;20053;-69
2022/08/02 10:07:16;;;;;;;3.28;1.77;;;;;;;32.66;31.43;99753.28;5027946;28;20045;-70
2022/08/02 10:09:45;;;;;;;4.65;2.25;;;;;;;32.68;30.83;99745.69;5029115;28;20067;-69
2022/08/02 10:12:12;;;;;;;6.93;3.03;;;;;;;32.96;29.66;99752.66;5034709;28;20054;-71
2022/08/02 10:14:39;;;;;;;8.82;3.00;;;;;;;33.24;29.38;99743.16;5035086;28;20752;-69
2022/08/02 10:17:07;;;;;;;3.17;2.08;;;;;;;32.94;30.41;99758.31;5021063;28;20096;-69
2022/08/02 10:19:34;;;;;;;6.95;2.28;;;;;;;32.55;30.95;99739.50;5014702;28;20056;-70
2022/08/02 10:22:05;;;;;;;3.13;2.42;;;;;;;32.88;30.63;99752.91;5016233;28;20057;-70
2022/08/02 10:24:36;;;;;;;3.35;2.30;;;;;;;31.88;31.31;99745.25;5014459;28;20050;-70
2022/08/02 10:27:03;;;;;;;5.85;2.58;;;;;;;31.80;30.92;99742.75;5014559;28;20046;-70
2022/08/02 10:29:35;;;;;;;5.13;2.17;;;;;;;32.24;30.53;99735.66;5013655;28;20069;-69
2022/08/02 10:32:06;;;;;;;5.57;2.20;;;;;;;32.76;30.48;99725.50;5014658;28;20053;-68
2022/08/02 10:34:37;;;;;;;4.30;2.40;;;;;;;33.13;30.04;99720.16;5012791;28;20509;-69
2022/08/02 10:37:08;;;;;;;3.17;2.30;;;;;;;33.35;30.32;99723.28;5013084;28;20042;-70
2022/08/02 10:39:39;;;;;;;5.13;2.47;;;;;;;33.30;29.97;99723.13;5012117;28;20561;-71
2022/08/02 10:42:06;;;;;;;5.38;2.72;;;;;;;33.34;29.73;99722.44;5013200;28;20053;-69
2022/08/02 10:44:34;;;;;;;3.95;2.40;;;;;;;33.54;29.23;99718.66;5012332;28;20049;-69
2022/08/02 10:47:21;;;;;;;4.93;2.15;;;;;;;33.63;29.27;99713.78;5012917;28;20157;-69
2022/08/02 10:49:49;;;;;;;4.30;2.47;;;;;;;34.00;28.80;99715.41;5011924;28;20045;-70
2022/08/02 10:52:17;;;;;;;2.85;1.98;;;;;;;34.23;27.91;99716.59;5013036;28;20501;-68
2022/08/02 10:54:49;;;;;;;6.53;1.98;;;;;;;33.94;27.74;99713.59;5018072;28;20474;-68
2022/08/02 10:57:18;;;;;;;2.72;1.83;;;;;;;32.70;30.02;99724.47;5031185;28;20056;-68
2022/08/02 10:59:45;;;;;;;6.15;2.00;;;;;;;31.65;32.09;99727.50;5031119;28;20055;-70
2022/08/02 11:02:12;;;;;;;3.88;2.22;;;;;;;31.71;32.00;99723.06;5032312;28;20103;-68
2022/08/02 11:05:01;;;;;;;3.78;2.53;;;;;;;31.63;31.58;99715.16;5031644;28;20468;-68
2022/08/02 11:07:35;;;;;;;5.60;1.67;;;;;;;30.98;32.16;99725.91;5030570;28;20046;-76
2022/08/02 11:10:41;;;;;;;4.18;2.17;;;;;;;30.36;32.66;99717.03;5024236;28;20416;-69
2022/08/02 11:13:12;;;;;;;3.72;2.50;;;;;;;30.19;33.90;99711.09;5017053;28;20067;-71
2022/08/02 11:15:51;;;;;;;2.67;2.05;;;;;;;30.10;34.04;99720.47;5031352;28;20111;-71
2022/08/02 11:18:19;;;;;;;2.85;1.90;;;;;;;29.94;34.62;99703.50;5031899;28;20279;-71
2022/08/02 11:20:46;;;;;;;3.15;1.80;;;;;;;29.78;35.03;99703.00;5031095;28;20052;-71
2022/08/02 11:23:37;;;;;;;3.65;2.00;;;;;;;29.68;34.83;99704.25;5031792;28;20049;-71
2022/08/02 11:26:24;;;;;;;4.25;2.60;;;;;;;29.55;35.83;99704.13;5031183;28;20151;-71
2022/08/02 11:28:52;;;;;;;5.95;2.58;;;;;;;29.54;36.40;99705.16;5031441;28;20726;-67
2022/08/02 11:31:19;;;;;;;3.92;2.28;;;;;;;29.44;36.17;99696.56;5027643;28;20048;-66
2022/08/02 11:33:45;;;;;;;5.43;2.88;;;;;;;29.46;36.77;99700.75;5031295;28;20089;-66
2022/08/02 11:36:12;;;;;;;5.97;2.58;;;;;;;29.51;36.32;99700.13;5030920;28;20154;-67
2022/08/02 11:38:38;;;;;;;7.70;2.30;;;;;;;29.32;36.08;99713.41;5030934;28;20051;-67
2022/08/02 11:41:06;;;;;;;3.45;2.47;;;;;;;29.14;36.91;99704.91;5031263;28;20054;-67
2022/08/02 11:43:33;;;;;;;6.63;2.42;;;;;;;29.01;37.30;99702.06;5031720;28;20049;-68